Weather History for YBHM - May, 2012

Change the Weather History Date:

Thursday, May 10, 2012

  Actual Average Record
Temperature  
Mean Temperature 74 °F -  
Max Temperature 78 °F - - ()
Min Temperature 71 °F - - ()
Cooling Degree Days 10    
Growing Degree Days 24 (Base 50)    
Moisture  
Dew Point 64 °F    
Average Humidity 69    
Maximum Humidity 83    
Minimum Humidity 50    
Precipitation  
Precipitation 0.00 in - - ()
Sea Level Pressure  
Sea Level Pressure 30.07 in    
Wind  
Wind Speed 21 mph ()    
Max Wind Speed 29 mph    
Max Gust Speed -    
T = Trace of Precipitation, MM = Missing Value Source: Averaged Metar Reports

Daily Weather History Graph

Daily Weather History Graph

Search for Another Location

Airport or City:

Trip Planner

Search our weather history database for the weather conditions in past years. The results will help you decide how hot, cold, wet, or windy it might be!

Date:

Astronomy

May. 10, 2012 Rise Set
Actual Time 6:23 AM AEST 5:37 PM AEST
Civil Twilight 6:00 AM AEST 6:00 PM AEST
Nautical Twilight 5:34 AM AEST 6:26 PM AEST
Astronomical Twilight 5:07 AM AEST 6:53 PM AEST
Moon 9:46 PM AEST (5/10) 10:17 AM AEST (5/10)
Length of Visible Light 11h 59m
Length of Day
11h 13m
Waning Gibbous, 79% of the Moon is Illuminated
May 10
Waning Gibbous
May 13
Last Quarter
May 21
New
May 29
First Quarter
Jun 4
Full

Hourly Weather History & Observations

Time (AEST) Temp. Dew Point Humidity Pressure Visibility Wind Dir Wind Speed Gust Speed Precip Events Conditions
12:00 AM 74 °F 60 °F 52% 30.09 in - ESE 21.9 mph - -  
12:00 AM 75.2 °F 59.0 °F 57% 30.09 in - ESE 21.9 mph - N/A   Unknown
12:30 AM 75.2 °F 60.8 °F 61% 30.09 in - ESE 23.0 mph - N/A   Unknown
1:00 AM 75.2 °F 60.8 °F 61% 30.09 in - ESE 23.0 mph - N/A   Unknown
1:30 AM 75.2 °F 59.0 °F 57% 30.06 in - ESE 21.9 mph - N/A   Unknown
2:00 AM 73.4 °F 60.8 °F 65% 30.06 in - ESE 21.9 mph - N/A   Unknown
2:30 AM 73.4 °F 60.8 °F 65% 30.06 in - ESE 21.9 mph - N/A   Unknown
3:00 AM 74 °F 59 °F 50% 30.07 in - ESE 19.6 mph - -  
3:00 AM 73.4 °F 59.0 °F 61% 30.06 in - ESE 19.6 mph - N/A   Unknown
3:30 AM 73.4 °F 60.8 °F 65% 30.06 in - ESE 18.4 mph - N/A   Unknown
4:00 AM 73.4 °F 60.8 °F 65% 30.06 in - SE 21.9 mph - N/A   Unknown
4:30 AM 73.4 °F 60.8 °F 65% 30.06 in - SE 20.7 mph - N/A   Unknown
5:00 AM 73.4 °F 60.8 °F 65% 30.06 in - SE 20.7 mph - N/A   Unknown
5:30 AM 73.4 °F 60.8 °F 65% 30.06 in - SE 20.7 mph - N/A   Unknown
6:00 AM 73 °F 63 °F 64% 30.08 in - SE 24.2 mph - -  
6:00 AM 73.4 °F 62.6 °F 69% 30.06 in - SE 24.2 mph - N/A   Unknown
6:30 AM 73.4 °F 64.4 °F 73% 30.06 in - SE 24.2 mph - N/A   Unknown
7:00 AM 71.6 °F 66.2 °F 83% 30.09 in - SSE 21.9 mph - N/A   Unknown
7:30 AM 71.6 °F 66.2 °F 83% 30.09 in - SSE 25.3 mph - N/A   Unknown
8:00 AM 71.6 °F 66.2 °F 83% 30.09 in - SSE 24.2 mph - N/A   Unknown
8:30 AM 71.6 °F 64.4 °F 78% 30.12 in - SSE 23.0 mph - N/A   Unknown
9:00 AM 73 °F 67 °F 76% 30.12 in - SSE 24.2 mph - -  
9:00 AM 73.4 °F 66.2 °F 78% 30.12 in - SSE 24.2 mph - N/A   Unknown
9:30 AM 71.6 °F 66.2 °F 83% 30.12 in - SSE 21.9 mph - N/A   Unknown
10:00 AM 73.4 °F 68.0 °F 83% 30.12 in - SSE 24.2 mph - N/A   Unknown
10:30 AM 73.4 °F 68.0 °F 83% 30.12 in - SSE 23.0 mph - N/A   Unknown
11:00 AM 75.2 °F 68.0 °F 78% 30.12 in - SSE 19.6 mph - N/A   Unknown
11:30 AM 75.2 °F 66.2 °F 73% 30.09 in - SSE 20.7 mph - N/A   Unknown
12:00 PM 78 °F 63 °F 50% 30.09 in - ESE 21.9 mph - -  
12:00 PM 78.8 °F 62.6 °F 57% 30.09 in - ESE 21.9 mph - N/A   Unknown
12:30 PM 75.2 °F 68.0 °F 78% 30.06 in - SSE 19.6 mph - N/A   Unknown
1:00 PM 77.0 °F 64.4 °F 65% 30.06 in - ESE 21.9 mph - N/A   Unknown
1:30 PM 77.0 °F 66.2 °F 69% 30.04 in - SE 21.9 mph - N/A   Unknown
2:00 PM 77.0 °F 64.4 °F 65% 30.04 in - SE 20.7 mph - N/A   Unknown
2:30 PM 77.0 °F 62.6 °F 61% 30.04 in - SE 21.9 mph - N/A   Unknown
3:00 PM 76 °F 62 °F 53% 30.04 in - ESE 20.7 mph - -  
3:00 PM 77.0 °F 62.6 °F 61% 30.04 in - ESE 20.7 mph - N/A   Unknown
3:30 PM 77.0 °F 66.2 °F 69% 30.04 in - ESE 21.9 mph - N/A   Unknown
4:00 PM 75.2 °F 66.2 °F 73% 30.04 in - SE 21.9 mph - N/A   Unknown
4:30 PM 75.2 °F 64.4 °F 69% 30.04 in - SE 24.2 mph - N/A   Unknown
5:00 PM 75.2 °F 66.2 °F 73% 30.04 in - SE 23.0 mph - N/A   Unknown
5:30 PM 73.4 °F 66.2 °F 78% 30.04 in - SE 26.5 mph - N/A   Unknown
6:00 PM 74 °F 65 °F 67% 30.06 in - SE 28.8 mph - -  
6:00 PM 73.4 °F 66.2 °F 78% 30.04 in - SE 28.8 mph - N/A   Unknown
6:30 PM 73.4 °F 62.6 °F 69% 30.06 in - SE 24.2 mph - N/A   Unknown
7:00 PM 73.4 °F 66.2 °F 78% 30.06 in - SE 16.1 mph - N/A   Unknown
7:30 PM 73.4 °F 66.2 °F 78% 30.06 in - SE 24.2 mph - N/A   Unknown
8:00 PM 73.4 °F 64.4 °F 73% 30.06 in - SE 27.6 mph - N/A   Unknown
8:30 PM 73.4 °F 62.6 °F 69% 30.09 in - SE 26.5 mph - N/A   Unknown
9:00 PM 74 °F 64 °F 62% 30.10 in - SE 25.3 mph - -  
9:00 PM 73.4 °F 64.4 °F 73% 30.09 in - SE 25.3 mph - N/A   Unknown
9:30 PM 75.2 °F 62.6 °F 65% 30.09 in - ESE 26.5 mph - N/A   Unknown
10:00 PM 75.2 °F 64.4 °F 69% 30.09 in - ESE 24.2 mph - N/A   Unknown
10:30 PM 73.4 °F 64.4 °F 73% 30.09 in - SE 20.7 mph - N/A   Unknown
11:00 PM 75.2 °F 64.4 °F 69% 30.09 in - ESE 23.0 mph - N/A   Unknown
11:30 PM 75.2 °F 64.4 °F 69% 30.09 in - ESE 23.0 mph - N/A   Unknown